sensor_id;sensor_type;location;lat;lon;timestamp;temperature;humidity
75899;DHT22;64576;50.460;4.866;2023-05-17T00:02:10;6.49;97.56
75899;DHT22;64576;50.460;4.866;2023-05-17T00:04:35;6.56;97.36
75899;DHT22;64576;50.460;4.866;2023-05-17T00:07:01;6.42;97.75
75899;DHT22;64576;50.460;4.866;2023-05-17T00:09:26;6.38;97.97
75899;DHT22;64576;50.460;4.866;2023-05-17T00:11:52;6.31;98.15
75899;DHT22;64576;50.460;4.866;2023-05-17T00:14:17;6.20;98.41
75899;DHT22;64576;50.460;4.866;2023-05-17T00:16:42;6.17;98.66
75899;DHT22;64576;50.460;4.866;2023-05-17T00:19:08;6.27;98.44
75899;DHT22;64576;50.460;4.866;2023-05-17T00:21:34;6.18;98.82
75899;DHT22;64576;50.460;4.866;2023-05-17T00:23:59;6.14;98.91
75899;DHT22;64576;50.460;4.866;2023-05-17T00:26:25;6.14;98.95
75899;DHT22;64576;50.460;4.866;2023-05-17T00:28:50;6.01;99.29
75899;DHT22;64576;50.460;4.866;2023-05-17T00:31:15;5.99;99.34
75899;DHT22;64576;50.460;4.866;2023-05-17T00:33:41;5.94;99.20
75899;DHT22;64576;50.460;4.866;2023-05-17T00:36:06;5.97;99.91
75899;DHT22;64576;50.460;4.866;2023-05-17T00:38:32;5.97;99.76
75899;DHT22;64576;50.460;4.866;2023-05-17T00:40:57;5.87;99.86
75899;DHT22;64576;50.460;4.866;2023-05-17T00:43:23;5.92;99.98
75899;DHT22;64576;50.460;4.866;2023-05-17T00:45:50;5.74;99.99
75899;DHT22;64576;50.460;4.866;2023-05-17T00:48:16;5.80;99.99
75899;DHT22;64576;50.460;4.866;2023-05-17T00:50:41;5.66;99.99
75899;DHT22;64576;50.460;4.866;2023-05-17T00:53:08;5.73;99.99
75899;DHT22;64576;50.460;4.866;2023-05-17T00:55:33;5.55;99.99
75899;DHT22;64576;50.460;4.866;2023-05-17T00:57:59;5.60;99.99
75899;DHT22;64576;50.460;4.866;2023-05-17T01:00:25;5.69;99.99
75899;DHT22;64576;50.460;4.866;2023-05-17T01:02:51;5.65;99.99
75899;DHT22;64576;50.460;4.866;2023-05-17T01:05:16;5.66;99.99
75899;DHT22;64576;50.460;4.866;2023-05-17T01:07:42;5.54;99.99
75899;DHT22;64576;50.460;4.866;2023-05-17T01:10:08;5.46;99.99
75899;DHT22;64576;50.460;4.866;2023-05-17T01:12:57;5.42;99.99
75899;DHT22;64576;50.460;4.866;2023-05-17T01:15:32;5.58;99.99
75899;DHT22;64576;50.460;4.866;2023-05-17T01:20:51;5.24;99.99
75899;DHT22;64576;50.460;4.866;2023-05-17T01:26:13;5.41;99.99
75899;DHT22;64576;50.460;4.866;2023-05-17T01:28:43;5.35;99.99
75899;DHT22;64576;50.460;4.866;2023-05-17T01:31:10;5.30;99.99
75899;DHT22;64576;50.460;4.866;2023-05-17T01:33:37;5.41;99.99
75899;DHT22;64576;50.460;4.866;2023-05-17T01:36:03;5.63;99.99
75899;DHT22;64576;50.460;4.866;2023-05-17T01:38:28;5.42;99.99
75899;DHT22;64576;50.460;4.866;2023-05-17T01:43:45;5.55;99.99
75899;DHT22;64576;50.460;4.866;2023-05-17T01:46:25;5.38;99.99
75899;DHT22;64576;50.460;4.866;2023-05-17T01:49:20;5.21;99.99
75899;DHT22;64576;50.460;4.866;2023-05-17T01:52:11;5.21;99.99
75899;DHT22;64576;50.460;4.866;2023-05-17T01:57:47;4.90;99.99
75899;DHT22;64576;50.460;4.866;2023-05-17T02:00:14;4.86;99.99
75899;DHT22;64576;50.460;4.866;2023-05-17T02:02:40;4.73;99.99
75899;DHT22;64576;50.460;4.866;2023-05-17T02:05:06;4.91;99.99
75899;DHT22;64576;50.460;4.866;2023-05-17T02:07:31;5.13;99.99
75899;DHT22;64576;50.460;4.866;2023-05-17T02:09:56;4.99;99.99
75899;DHT22;64576;50.460;4.866;2023-05-17T02:12:22;4.93;99.99
75899;DHT22;64576;50.460;4.866;2023-05-17T02:14:47;4.79;99.99
75899;DHT22;64576;50.460;4.866;2023-05-17T02:17:13;4.91;99.99
75899;DHT22;64576;50.460;4.866;2023-05-17T02:19:38;4.84;99.99
75899;DHT22;64576;50.460;4.866;2023-05-17T02:22:04;4.75;99.99
75899;DHT22;64576;50.460;4.866;2023-05-17T02:24:29;5.04;99.99
75899;DHT22;64576;50.460;4.866;2023-05-17T02:26:55;5.18;99.99
75899;DHT22;64576;50.460;4.866;2023-05-17T02:29:20;5.21;99.99
75899;DHT22;64576;50.460;4.866;2023-05-17T02:31:45;5.34;99.99
75899;DHT22;64576;50.460;4.866;2023-05-17T02:34:11;5.31;99.99
75899;DHT22;64576;50.460;4.866;2023-05-17T02:36:36;5.30;99.99
75899;DHT22;64576;50.460;4.866;2023-05-17T02:39:02;5.27;99.99
75899;DHT22;64576;50.460;4.866;2023-05-17T02:41:27;4.86;99.99
75899;DHT22;64576;50.460;4.866;2023-05-17T02:43:52;4.65;99.99
75899;DHT22;64576;50.460;4.866;2023-05-17T02:46:18;4.51;99.99
75899;DHT22;64576;50.460;4.866;2023-05-17T02:48:43;4.86;99.99
75899;DHT22;64576;50.460;4.866;2023-05-17T02:51:09;4.93;99.99
75899;DHT22;64576;50.460;4.866;2023-05-17T02:53:35;5.10;99.99
75899;DHT22;64576;50.460;4.866;2023-05-17T02:56:00;5.25;99.99
75899;DHT22;64576;50.460;4.866;2023-05-17T02:58:25;5.14;99.99
75899;DHT22;64576;50.460;4.866;2023-05-17T03:00:51;4.89;99.99
75899;DHT22;64576;50.460;4.866;2023-05-17T03:03:16;4.70;99.99
75899;DHT22;64576;50.460;4.866;2023-05-17T03:05:42;4.53;99.99
75899;DHT22;64576;50.460;4.866;2023-05-17T03:08:07;4.83;99.99
75899;DHT22;64576;50.460;4.866;2023-05-17T03:10:33;4.62;99.99
75899;DHT22;64576;50.460;4.866;2023-05-17T03:12:58;4.62;99.99
75899;DHT22;64576;50.460;4.866;2023-05-17T03:15:24;4.55;99.99
75899;DHT22;64576;50.460;4.866;2023-05-17T03:17:51;4.58;99.99
75899;DHT22;64576;50.460;4.866;2023-05-17T03:20:17;4.68;99.99
75899;DHT22;64576;50.460;4.866;2023-05-17T03:22:42;4.75;99.99
75899;DHT22;64576;50.460;4.866;2023-05-17T03:25:08;4.80;99.99
75899;DHT22;64576;50.460;4.866;2023-05-17T03:27:33;4.72;99.99
75899;DHT22;64576;50.460;4.866;2023-05-17T03:29:59;4.73;99.99
75899;DHT22;64576;50.460;4.866;2023-05-17T03:32:24;4.65;99.99
75899;DHT22;64576;50.460;4.866;2023-05-17T03:34:50;4.59;99.99
75899;DHT22;64576;50.460;4.866;2023-05-17T03:37:15;4.51;99.99
75899;DHT22;64576;50.460;4.866;2023-05-17T03:39:42;4.58;99.99
75899;DHT22;64576;50.460;4.866;2023-05-17T03:42:07;4.61;99.99
75899;DHT22;64576;50.460;4.866;2023-05-17T03:44:33;4.63;99.99
75899;DHT22;64576;50.460;4.866;2023-05-17T03:46:58;4.84;99.99
75899;DHT22;64576;50.460;4.866;2023-05-17T03:49:23;4.96;99.99
75899;DHT22;64576;50.460;4.866;2023-05-17T03:51:49;5.03;99.99
75899;DHT22;64576;50.460;4.866;2023-05-17T03:54:14;5.20;99.99
75899;DHT22;64576;50.460;4.866;2023-05-17T03:56:40;5.24;99.99
75899;DHT22;64576;50.460;4.866;2023-05-17T03:59:07;5.20;99.99
75899;DHT22;64576;50.460;4.866;2023-05-17T04:01:33;5.14;99.99
75899;DHT22;64576;50.460;4.866;2023-05-17T04:03:58;5.10;99.99
75899;DHT22;64576;50.460;4.866;2023-05-17T04:06:25;5.18;99.99
75899;DHT22;64576;50.460;4.866;2023-05-17T04:08:51;5.06;99.99
75899;DHT22;64576;50.460;4.866;2023-05-17T04:11:17;5.01;99.99
75899;DHT22;64576;50.460;4.866;2023-05-17T04:13:47;5.01;99.99
75899;DHT22;64576;50.460;4.866;2023-05-17T04:16:13;5.10;99.99
75899;DHT22;64576;50.460;4.866;2023-05-17T04:18:39;5.59;99.99
75899;DHT22;64576;50.460;4.866;2023-05-17T04:21:05;5.76;99.99
75899;DHT22;64576;50.460;4.866;2023-05-17T04:23:32;5.63;99.99
75899;DHT22;64576;50.460;4.866;2023-05-17T04:25:57;5.49;99.99
75899;DHT22;64576;50.460;4.866;2023-05-17T04:28:23;5.38;99.99
75899;DHT22;64576;50.460;4.866;2023-05-17T04:30:49;5.44;99.99
75899;DHT22;64576;50.460;4.866;2023-05-17T04:33:14;5.42;99.99
75899;DHT22;64576;50.460;4.866;2023-05-17T04:35:41;5.42;99.99
75899;DHT22;64576;50.460;4.866;2023-05-17T04:38:07;5.42;99.99
75899;DHT22;64576;50.460;4.866;2023-05-17T04:40:33;5.74;99.99
75899;DHT22;64576;50.460;4.866;2023-05-17T04:42:58;6.25;99.99
75899;DHT22;64576;50.460;4.866;2023-05-17T04:45:23;6.97;99.99
75899;DHT22;64576;50.460;4.866;2023-05-17T04:47:49;7.41;99.99
75899;DHT22;64576;50.460;4.866;2023-05-17T04:50:15;7.85;99.99
75899;DHT22;64576;50.460;4.866;2023-05-17T04:52:41;7.96;99.99
75899;DHT22;64576;50.460;4.866;2023-05-17T04:55:07;7.63;99.93
75899;DHT22;64576;50.460;4.866;2023-05-17T04:57:32;7.44;98.94
75899;DHT22;64576;50.460;4.866;2023-05-17T04:59:57;8.03;98.63
75899;DHT22;64576;50.460;4.866;2023-05-17T05:02:23;8.58;96.98
75899;DHT22;64576;50.460;4.866;2023-05-17T05:04:48;9.00;94.92
75899;DHT22;64576;50.460;4.866;2023-05-17T05:07:13;9.35;92.93
75899;DHT22;64576;50.460;4.866;2023-05-17T05:09:39;9.71;92.53
75899;DHT22;64576;50.460;4.866;2023-05-17T05:12:05;9.75;90.47
75899;DHT22;64576;50.460;4.866;2023-05-17T05:14:30;9.78;89.40
75899;DHT22;64576;50.460;4.866;2023-05-17T05:16:55;9.81;88.23
75899;DHT22;64576;50.460;4.866;2023-05-17T05:19:21;10.24;86.92
75899;DHT22;64576;50.460;4.866;2023-05-17T05:21:46;10.47;86.94
75899;DHT22;64576;50.460;4.866;2023-05-17T05:24:11;10.91;87.03
75899;DHT22;64576;50.460;4.866;2023-05-17T05:26:37;11.06;84.60
75899;DHT22;64576;50.460;4.866;2023-05-17T05:29:02;11.16;86.10
75899;DHT22;64576;50.460;4.866;2023-05-17T05:31:28;11.45;83.77
75899;DHT22;64576;50.460;4.866;2023-05-17T05:33:54;11.52;83.76
75899;DHT22;64576;50.460;4.866;2023-05-17T05:36:19;11.03;85.91
75899;DHT22;64576;50.460;4.866;2023-05-17T05:38:45;10.20;86.67
75899;DHT22;64576;50.460;4.866;2023-05-17T05:41:10;9.78;89.05
75899;DHT22;64576;50.460;4.866;2023-05-17T05:43:36;9.52;91.56
75899;DHT22;64576;50.460;4.866;2023-05-17T05:46:02;9.49;90.47
75899;DHT22;64576;50.460;4.866;2023-05-17T05:48:29;9.65;91.53
75899;DHT22;64576;50.460;4.866;2023-05-17T05:50:54;9.71;91.07
75899;DHT22;64576;50.460;4.866;2023-05-17T05:53:19;9.47;90.81
75899;DHT22;64576;50.460;4.866;2023-05-17T05:55:45;9.41;90.07
75899;DHT22;64576;50.460;4.866;2023-05-17T05:58:11;9.96;89.64
75899;DHT22;64576;50.460;4.866;2023-05-17T06:00:36;10.52;89.50
75899;DHT22;64576;50.460;4.866;2023-05-17T06:03:03;12.26;84.45
75899;DHT22;64576;50.460;4.866;2023-05-17T06:05:29;11.96;83.07
75899;DHT22;64576;50.460;4.866;2023-05-17T06:07:55;11.03;83.92
75899;DHT22;64576;50.460;4.866;2023-05-17T06:10:20;11.23;85.57
75899;DHT22;64576;50.460;4.866;2023-05-17T06:12:46;10.80;84.92
75899;DHT22;64576;50.460;4.866;2023-05-17T06:15:11;10.85;86.34
75899;DHT22;64576;50.460;4.866;2023-05-17T06:17:37;10.51;85.58
75899;DHT22;64576;50.460;4.866;2023-05-17T06:20:02;10.41;85.25
75899;DHT22;64576;50.460;4.866;2023-05-17T06:22:28;10.29;85.89
75899;DHT22;64576;50.460;4.866;2023-05-17T06:24:53;10.42;86.86
75899;DHT22;64576;50.460;4.866;2023-05-17T06:27:18;10.40;86.27
75899;DHT22;64576;50.460;4.866;2023-05-17T06:29:44;10.44;85.95
75899;DHT22;64576;50.460;4.866;2023-05-17T06:32:09;10.67;85.79
75899;DHT22;64576;50.460;4.866;2023-05-17T06:34:35;10.73;84.82
75899;DHT22;64576;50.460;4.866;2023-05-17T06:37:01;10.83;84.10
75899;DHT22;64576;50.460;4.866;2023-05-17T06:39:27;11.03;82.99
75899;DHT22;64576;50.460;4.866;2023-05-17T06:41:53;11.68;81.91
75899;DHT22;64576;50.460;4.866;2023-05-17T06:44:18;11.69;82.40
75899;DHT22;64576;50.460;4.866;2023-05-17T06:46:44;12.22;80.33
75899;DHT22;64576;50.460;4.866;2023-05-17T06:49:09;12.99;77.74
75899;DHT22;64576;50.460;4.866;2023-05-17T06:51:34;13.65;75.47
75899;DHT22;64576;50.460;4.866;2023-05-17T06:54:00;14.19;73.78
75899;DHT22;64576;50.460;4.866;2023-05-17T06:56:25;13.86;72.88
75899;DHT22;64576;50.460;4.866;2023-05-17T06:58:51;14.32;72.46
75899;DHT22;64576;50.460;4.866;2023-05-17T07:01:16;13.00;75.52
75899;DHT22;64576;50.460;4.866;2023-05-17T07:03:42;12.91;75.85
75899;DHT22;64576;50.460;4.866;2023-05-17T07:06:08;12.69;76.13
75899;DHT22;64576;50.460;4.866;2023-05-17T07:08:33;11.50;79.91
75899;DHT22;64576;50.460;4.866;2023-05-17T07:10:58;12.95;76.43
75899;DHT22;64576;50.460;4.866;2023-05-17T07:13:25;12.43;77.86
75899;DHT22;64576;50.460;4.866;2023-05-17T07:15:50;13.05;76.59
75899;DHT22;64576;50.460;4.866;2023-05-17T07:18:15;14.80;68.83
75899;DHT22;64576;50.460;4.866;2023-05-17T07:20:41;15.97;67.45
75899;DHT22;64576;50.460;4.866;2023-05-17T07:23:07;16.76;63.41
75899;DHT22;64576;50.460;4.866;2023-05-17T07:25:32;17.45;62.19
75899;DHT22;64576;50.460;4.866;2023-05-17T07:27:58;16.45;63.87
75899;DHT22;64576;50.460;4.866;2023-05-17T07:30:24;15.57;67.19
75899;DHT22;64576;50.460;4.866;2023-05-17T07:32:49;16.92;63.73
75899;DHT22;64576;50.460;4.866;2023-05-17T07:35:15;16.81;63.95
75899;DHT22;64576;50.460;4.866;2023-05-17T07:37:41;14.71;67.81
75899;DHT22;64576;50.460;4.866;2023-05-17T07:40:07;14.41;70.55
75899;DHT22;64576;50.460;4.866;2023-05-17T07:42:33;14.46;69.58
75899;DHT22;64576;50.460;4.866;2023-05-17T07:44:58;14.09;70.39
75899;DHT22;64576;50.460;4.866;2023-05-17T07:47:23;13.64;69.70
75899;DHT22;64576;50.460;4.866;2023-05-17T07:49:49;15.67;66.19
75899;DHT22;64576;50.460;4.866;2023-05-17T07:52:14;16.12;65.00
75899;DHT22;64576;50.460;4.866;2023-05-17T07:54:40;16.53;63.85
75899;DHT22;64576;50.460;4.866;2023-05-17T07:57:05;16.81;62.28
75899;DHT22;64576;50.460;4.866;2023-05-17T07:59:31;18.31;60.48
75899;DHT22;64576;50.460;4.866;2023-05-17T08:01:56;17.77;60.17
75899;DHT22;64576;50.460;4.866;2023-05-17T08:04:23;16.91;62.82
75899;DHT22;64576;50.460;4.866;2023-05-17T08:06:49;16.11;63.30
75899;DHT22;64576;50.460;4.866;2023-05-17T08:09:15;15.50;65.06
75899;DHT22;64576;50.460;4.866;2023-05-17T08:11:44;14.88;66.83
75899;DHT22;64576;50.460;4.866;2023-05-17T08:14:13;14.48;68.40
75899;DHT22;64576;50.460;4.866;2023-05-17T08:16:39;15.77;66.25
75899;DHT22;64576;50.460;4.866;2023-05-17T08:19:05;17.26;61.85
75899;DHT22;64576;50.460;4.866;2023-05-17T08:21:30;16.63;62.13
75899;DHT22;64576;50.460;4.866;2023-05-17T08:23:56;16.38;62.20
75899;DHT22;64576;50.460;4.866;2023-05-17T08:26:23;15.83;62.69
75899;DHT22;64576;50.460;4.866;2023-05-17T08:28:48;16.57;62.26
75899;DHT22;64576;50.460;4.866;2023-05-17T08:31:13;16.49;61.68
75899;DHT22;64576;50.460;4.866;2023-05-17T08:33:39;16.38;62.25
75899;DHT22;64576;50.460;4.866;2023-05-17T08:36:08;16.25;62.01
75899;DHT22;64576;50.460;4.866;2023-05-17T08:38:34;15.60;62.54
75899;DHT22;64576;50.460;4.866;2023-05-17T08:41:00;14.89;64.83
75899;DHT22;64576;50.460;4.866;2023-05-17T08:43:27;15.94;62.88
75899;DHT22;64576;50.460;4.866;2023-05-17T08:45:52;17.69;59.30
75899;DHT22;64576;50.460;4.866;2023-05-17T08:48:18;18.38;58.32
75899;DHT22;64576;50.460;4.866;2023-05-17T08:50:46;18.70;55.96
75899;DHT22;64576;50.460;4.866;2023-05-17T08:53:15;20.00;54.70
75899;DHT22;64576;50.460;4.866;2023-05-17T08:55:45;20.58;52.64
75899;DHT22;64576;50.460;4.866;2023-05-17T08:58:14;20.13;50.77
75899;DHT22;64576;50.460;4.866;2023-05-17T09:00:42;20.55;50.98
75899;DHT22;64576;50.460;4.866;2023-05-17T09:03:17;20.14;52.70
75899;DHT22;64576;50.460;4.866;2023-05-17T09:05:44;19.83;51.11
75899;DHT22;64576;50.460;4.866;2023-05-17T09:08:10;18.05;55.16
75899;DHT22;64576;50.460;4.866;2023-05-17T09:10:40;20.56;51.38
75899;DHT22;64576;50.460;4.866;2023-05-17T09:13:10;19.44;52.42
75899;DHT22;64576;50.460;4.866;2023-05-17T09:15:46;17.87;56.36
75899;DHT22;64576;50.460;4.866;2023-05-17T09:18:12;16.06;61.61
75899;DHT22;64576;50.460;4.866;2023-05-17T09:20:41;16.71;60.74
75899;DHT22;64576;50.460;4.866;2023-05-17T09:23:20;18.59;54.53
75899;DHT22;64576;50.460;4.866;2023-05-17T09:25:49;17.94;56.26
75899;DHT22;64576;50.460;4.866;2023-05-17T09:28:17;17.93;58.39
75899;DHT22;64576;50.460;4.866;2023-05-17T09:30:48;18.60;55.83
75899;DHT22;64576;50.460;4.866;2023-05-17T09:33:15;16.02;60.69
75899;DHT22;64576;50.460;4.866;2023-05-17T09:35:47;15.54;60.90
75899;DHT22;64576;50.460;4.866;2023-05-17T09:38:14;15.67;59.93
75899;DHT22;64576;50.460;4.866;2023-05-17T09:40:51;15.90;60.16
75899;DHT22;64576;50.460;4.866;2023-05-17T09:43:23;15.49;59.15
75899;DHT22;64576;50.460;4.866;2023-05-17T09:45:57;15.66;61.36
75899;DHT22;64576;50.460;4.866;2023-05-17T09:48:28;14.88;61.72
75899;DHT22;64576;50.460;4.866;2023-05-17T09:50:55;15.22;60.83
75899;DHT22;64576;50.460;4.866;2023-05-17T09:53:33;15.76;60.20
75899;DHT22;64576;50.460;4.866;2023-05-17T09:56:10;17.90;55.50
75899;DHT22;64576;50.460;4.866;2023-05-17T09:58:42;17.17;56.34
75899;DHT22;64576;50.460;4.866;2023-05-17T10:01:10;16.79;57.48
75899;DHT22;64576;50.460;4.866;2023-05-17T10:03:37;17.25;56.26
75899;DHT22;64576;50.460;4.866;2023-05-17T10:06:07;15.71;57.48
75899;DHT22;64576;50.460;4.866;2023-05-17T10:08:38;17.03;56.10
75899;DHT22;64576;50.460;4.866;2023-05-17T10:11:10;19.42;51.27
75899;DHT22;64576;50.460;4.866;2023-05-17T10:16:36;18.83;48.38
75899;DHT22;64576;50.460;4.866;2023-05-17T10:19:10;20.92;45.14
75899;DHT22;64576;50.460;4.866;2023-05-17T10:21:49;19.17;48.95
75899;DHT22;64576;50.460;4.866;2023-05-17T10:24:18;19.44;48.37
75899;DHT22;64576;50.460;4.866;2023-05-17T10:26:45;21.44;44.84
75899;DHT22;64576;50.460;4.866;2023-05-17T10:29:11;20.51;44.07
75899;DHT22;64576;50.460;4.866;2023-05-17T10:31:39;17.89;49.09
75899;DHT22;64576;50.460;4.866;2023-05-17T10:34:09;18.05;50.47
75899;DHT22;64576;50.460;4.866;2023-05-17T10:36:36;18.77;49.18
75899;DHT22;64576;50.460;4.866;2023-05-17T10:39:05;18.48;49.88
75899;DHT22;64576;50.460;4.866;2023-05-17T10:41:52;16.45;52.78
75899;DHT22;64576;50.460;4.866;2023-05-17T10:44:19;17.50;51.06
75899;DHT22;64576;50.460;4.866;2023-05-17T10:46:53;18.63;47.51
75899;DHT22;64576;50.460;4.866;2023-05-17T10:49:18;18.96;46.80
75899;DHT22;64576;50.460;4.866;2023-05-17T10:51:45;19.14;47.27
75899;DHT22;64576;50.460;4.866;2023-05-17T10:54:15;20.42;44.23
75899;DHT22;64576;50.460;4.866;2023-05-17T10:56:51;20.87;42.11
75899;DHT22;64576;50.460;4.866;2023-05-17T10:59:22;18.82;44.96
75899;DHT22;64576;50.460;4.866;2023-05-17T11:02:07;19.73;44.60
75899;DHT22;64576;50.460;4.866;2023-05-17T11:10:02;19.76;43.93
75899;DHT22;64576;50.460;4.866;2023-05-17T11:12:34;20.79;42.53
75899;DHT22;64576;50.460;4.866;2023-05-17T11:15:06;20.61;40.53
75899;DHT22;64576;50.460;4.866;2023-05-17T11:17:45;21.58;42.04
75899;DHT22;64576;50.460;4.866;2023-05-17T11:22:41;21.68;42.57
75899;DHT22;64576;50.460;4.866;2023-05-17T11:25:12;19.69;40.80
75899;DHT22;64576;50.460;4.866;2023-05-17T11:27:49;19.97;41.07
75899;DHT22;64576;50.460;4.866;2023-05-17T11:30:28;22.13;38.99
75899;DHT22;64576;50.460;4.866;2023-05-17T11:33:05;21.83;39.88
75899;DHT22;64576;50.460;4.866;2023-05-17T11:35:33;23.37;38.30
75899;DHT22;64576;50.460;4.866;2023-05-17T11:38:21;22.34;38.35
75899;DHT22;64576;50.460;4.866;2023-05-17T11:40:51;20.34;41.71
75899;DHT22;64576;50.460;4.866;2023-05-17T11:45:57;19.97;38.22
75899;DHT22;64576;50.460;4.866;2023-05-17T11:48:23;20.23;38.99
75899;DHT22;64576;50.460;4.866;2023-05-17T11:50:51;22.18;36.27
75899;DHT22;64576;50.460;4.866;2023-05-17T11:53:17;22.71;36.86
75899;DHT22;64576;50.460;4.866;2023-05-17T11:55:51;21.75;36.77
75899;DHT22;64576;50.460;4.866;2023-05-17T11:58:20;20.78;39.35
75899;DHT22;64576;50.460;4.866;2023-05-17T12:00:53;21.26;39.14
75899;DHT22;64576;50.460;4.866;2023-05-17T12:03:21;23.30;35.09
75899;DHT22;64576;50.460;4.866;2023-05-17T12:05:48;21.34;36.75
75899;DHT22;64576;50.460;4.866;2023-05-17T12:08:15;19.97;39.86
75899;DHT22;64576;50.460;4.866;2023-05-17T12:10:49;20.09;39.83
75899;DHT22;64576;50.460;4.866;2023-05-17T12:13:16;20.11;37.96
75899;DHT22;64576;50.460;4.866;2023-05-17T12:15:56;22.36;36.33
75899;DHT22;64576;50.460;4.866;2023-05-17T12:18:22;21.95;36.47
75899;DHT22;64576;50.460;4.866;2023-05-17T12:20:58;21.61;36.61
75899;DHT22;64576;50.460;4.866;2023-05-17T12:23:31;22.10;37.24
75899;DHT22;64576;50.460;4.866;2023-05-17T12:26:14;21.16;36.52
75899;DHT22;64576;50.460;4.866;2023-05-17T12:28:42;20.99;38.21
75899;DHT22;64576;50.460;4.866;2023-05-17T12:31:16;20.41;40.63
75899;DHT22;64576;50.460;4.866;2023-05-17T12:33:44;20.59;37.56
75899;DHT22;64576;50.460;4.866;2023-05-17T12:36:12;21.07;38.01
75899;DHT22;64576;50.460;4.866;2023-05-17T12:38:42;20.25;39.44
75899;DHT22;64576;50.460;4.866;2023-05-17T12:41:14;19.45;40.58
75899;DHT22;64576;50.460;4.866;2023-05-17T12:43:42;19.07;39.43
75899;DHT22;64576;50.460;4.866;2023-05-17T12:46:13;18.84;38.58
75899;DHT22;64576;50.460;4.866;2023-05-17T12:48:42;19.86;38.94
75899;DHT22;64576;50.460;4.866;2023-05-17T12:51:08;20.13;38.71
75899;DHT22;64576;50.460;4.866;2023-05-17T12:53:36;19.94;39.92
75899;DHT22;64576;50.460;4.866;2023-05-17T12:56:03;19.32;41.23
75899;DHT22;64576;50.460;4.866;2023-05-17T12:58:29;18.48;42.23
75899;DHT22;64576;50.460;4.866;2023-05-17T13:00:56;19.94;40.96
75899;DHT22;64576;50.460;4.866;2023-05-17T13:03:22;20.99;38.65
75899;DHT22;64576;50.460;4.866;2023-05-17T13:06:06;19.63;38.03
75899;DHT22;64576;50.460;4.866;2023-05-17T13:08:34;20.45;37.80
75899;DHT22;64576;50.460;4.866;2023-05-17T13:11:10;20.06;39.35
75899;DHT22;64576;50.460;4.866;2023-05-17T13:13:36;21.41;36.64
75899;DHT22;64576;50.460;4.866;2023-05-17T13:16:02;20.76;37.29
75899;DHT22;64576;50.460;4.866;2023-05-17T13:18:28;21.40;38.26
75899;DHT22;64576;50.460;4.866;2023-05-17T13:20:53;21.27;38.49
75899;DHT22;64576;50.460;4.866;2023-05-17T13:23:21;20.76;37.72
75899;DHT22;64576;50.460;4.866;2023-05-17T13:25:46;21.54;38.05
75899;DHT22;64576;50.460;4.866;2023-05-17T13:28:12;21.42;37.62
75899;DHT22;64576;50.460;4.866;2023-05-17T13:30:37;21.61;36.89
75899;DHT22;64576;50.460;4.866;2023-05-17T13:33:03;22.39;34.43
75899;DHT22;64576;50.460;4.866;2023-05-17T13:35:28;21.22;35.63
75899;DHT22;64576;50.460;4.866;2023-05-17T13:37:53;20.61;35.93
75899;DHT22;64576;50.460;4.866;2023-05-17T13:40:19;21.13;34.86
75899;DHT22;64576;50.460;4.866;2023-05-17T13:42:44;22.26;35.84
75899;DHT22;64576;50.460;4.866;2023-05-17T13:45:12;22.79;33.70
75899;DHT22;64576;50.460;4.866;2023-05-17T13:47:38;23.91;33.64
75899;DHT22;64576;50.460;4.866;2023-05-17T13:50:03;22.79;32.29
75899;DHT22;64576;50.460;4.866;2023-05-17T13:52:29;23.30;31.83
75899;DHT22;64576;50.460;4.866;2023-05-17T13:54:55;23.08;32.30
75899;DHT22;64576;50.460;4.866;2023-05-17T13:57:21;23.10;33.75
75899;DHT22;64576;50.460;4.866;2023-05-17T13:59:46;22.13;35.37
75899;DHT22;64576;50.460;4.866;2023-05-17T14:02:12;20.52;34.15
75899;DHT22;64576;50.460;4.866;2023-05-17T14:04:37;20.20;34.61
75899;DHT22;64576;50.460;4.866;2023-05-17T14:07:03;20.51;34.58
75899;DHT22;64576;50.460;4.866;2023-05-17T14:09:29;22.16;33.33
75899;DHT22;64576;50.460;4.866;2023-05-17T14:11:58;23.27;32.14
75899;DHT22;64576;50.460;4.866;2023-05-17T14:14:23;22.60;32.08
75899;DHT22;64576;50.460;4.866;2023-05-17T14:16:54;21.50;32.18
75899;DHT22;64576;50.460;4.866;2023-05-17T14:19:19;22.50;31.63
75899;DHT22;64576;50.460;4.866;2023-05-17T14:21:45;22.88;30.40
75899;DHT22;64576;50.460;4.866;2023-05-17T14:24:10;23.12;29.82
75899;DHT22;64576;50.460;4.866;2023-05-17T14:26:36;21.85;29.84
75899;DHT22;64576;50.460;4.866;2023-05-17T14:29:01;21.51;30.77
75899;DHT22;64576;50.460;4.866;2023-05-17T14:31:27;21.13;30.84
75899;DHT22;64576;50.460;4.866;2023-05-17T14:33:54;22.48;29.30
75899;DHT22;64576;50.460;4.866;2023-05-17T14:36:19;21.14;32.70
75899;DHT22;64576;50.460;4.866;2023-05-17T14:38:48;22.61;30.81
75899;DHT22;64576;50.460;4.866;2023-05-17T14:41:13;21.13;32.49
75899;DHT22;64576;50.460;4.866;2023-05-17T14:43:39;19.73;32.46
75899;DHT22;64576;50.460;4.866;2023-05-17T14:46:04;20.07;32.67
75899;DHT22;64576;50.460;4.866;2023-05-17T14:48:30;20.65;31.68
75899;DHT22;64576;50.460;4.866;2023-05-17T14:50:55;20.30;30.42
75899;DHT22;64576;50.460;4.866;2023-05-17T14:53:21;21.62;30.23
75899;DHT22;64576;50.460;4.866;2023-05-17T14:55:47;22.17;30.64
75899;DHT22;64576;50.460;4.866;2023-05-17T14:58:14;20.30;30.86
75899;DHT22;64576;50.460;4.866;2023-05-17T15:00:39;20.16;31.45
75899;DHT22;64576;50.460;4.866;2023-05-17T15:03:08;19.89;32.22
75899;DHT22;64576;50.460;4.866;2023-05-17T15:05:34;20.96;32.74
75899;DHT22;64576;50.460;4.866;2023-05-17T15:08:00;21.71;31.26
75899;DHT22;64576;50.460;4.866;2023-05-17T15:10:25;20.20;30.69
75899;DHT22;64576;50.460;4.866;2023-05-17T15:12:51;20.51;30.82
75899;DHT22;64576;50.460;4.866;2023-05-17T15:15:16;20.49;30.33
75899;DHT22;64576;50.460;4.866;2023-05-17T15:17:41;20.93;29.96
75899;DHT22;64576;50.460;4.866;2023-05-17T15:20:07;20.87;30.86
75899;DHT22;64576;50.460;4.866;2023-05-17T15:22:33;20.72;32.62
75899;DHT22;64576;50.460;4.866;2023-05-17T15:24:58;20.16;30.41
75899;DHT22;64576;50.460;4.866;2023-05-17T15:27:24;20.14;30.63
75899;DHT22;64576;50.460;4.866;2023-05-17T15:29:50;20.49;31.30
75899;DHT22;64576;50.460;4.866;2023-05-17T15:32:15;19.98;34.16
75899;DHT22;64576;50.460;4.866;2023-05-17T15:34:41;19.76;34.16
75899;DHT22;64576;50.460;4.866;2023-05-17T15:37:06;20.68;33.57
75899;DHT22;64576;50.460;4.866;2023-05-17T15:39:32;19.38;34.66
75899;DHT22;64576;50.460;4.866;2023-05-17T15:41:57;19.98;32.67
75899;DHT22;64576;50.460;4.866;2023-05-17T15:44:23;19.83;34.59
75899;DHT22;64576;50.460;4.866;2023-05-17T15:46:49;19.51;35.32
75899;DHT22;64576;50.460;4.866;2023-05-17T15:49:14;18.76;37.25
75899;DHT22;64576;50.460;4.866;2023-05-17T15:51:40;19.67;36.59
75899;DHT22;64576;50.460;4.866;2023-05-17T15:54:05;19.76;34.73
75899;DHT22;64576;50.460;4.866;2023-05-17T15:56:31;19.86;35.02
75899;DHT22;64576;50.460;4.866;2023-05-17T15:58:57;18.62;36.75
75899;DHT22;64576;50.460;4.866;2023-05-17T16:01:22;19.44;35.84